Impacts METAR Board
IDs:

KMCO - Orlando Intl, FL, US

Updated at: 0300 UTC 20 Mar 2019
Potential Impact None Slight Moderate High
Time 19/15Z 19/16Z 19/17Z 19/18Z 19/19Z 19/20Z 19/21Z 19/22Z 19/23Z 20/00Z 20/01Z 20/02Z 20/03Z
Temp58 60 62 64 65 67 66 66 66 64 62 60 59
Dewpt53 56 57 57 58 58 57 57 58 58 57 57 57
Altim30.14 30.15 30.15 30.13 30.12 30.09 30.08 30.08 30.08 30.09 30.10 30.10 30.13
VIS10 10 10 10 10 10 10 10 10 10 10 3 3
CIG100 95 85 80 80 19 80 80 48 41 55 6 8
CoverOVCOVCOVCOVCOVCOVCOVCOVCOVCOVCOVCOVCOVC
FltCatVFRVFRVFRVFRVFRMVFRVFRVFRVFRVFRVFRIFRIFR
WX-RA-RA-RA-RA-RA-----------RA-RA BR-RA BR
WDir202050304050507020360360360360
WSpd7 7 7 9 6 6 5 6 4 11 12 16 12
WGst-- -- -- -- -- -- -- -- -- -- -- -- --
Raw hourly METARs
KMCO 191453Z 02007KT 10SM -RA OVC100 14/12 A3014 RMK AO2 SLP207 P0003 60006 T01440117 50003
KMCO 191553Z 02007KT 10SM -RA OVC095 16/13 A3015 RMK AO2 SLP209 P0001 T01560133
KMCO 191653Z 05007KT 10SM -RA OVC085 17/14 A3015 RMK AO2 RAE10B46 SLP210 P0000 T01670139
KMCO 191753Z 03009KT 10SM -RA OVC080 18/14 A3013 RMK AO2 RAE22B48 SLP201 P0000 60007 T01780139 10178 20133 58005
KMCO 191853Z 04006KT 10SM -RA FEW055 FEW070 OVC080 18/14 A3012 RMK AO2 SLP197 P0000 T01830144
KMCO 192000Z 05006KT 10SM BKN019 BKN090 OVC250 19/14 A3009 RMK AO2 T01940144
KMCO 192053Z 05005KT 10SM SCT024 BKN080 OVC250 19/14 A3008 RMK AO2 SLP184 60000 T01890139 56017
KMCO 192153Z 07006KT 10SM FEW024 FEW055 BKN080 OVC130 19/14 A3008 RMK AO2 SLP184 T01890139
KMCO 192253Z 02004KT 10SM FEW028 BKN048 BKN090 OVC130 19/14 A3008 RMK AO2 SLP184 T01890144
KMCO 192353Z 36011KT 10SM SCT018 BKN041 OVC090 18/14 A3009 RMK AO2 SLP188 60000 T01780144 10194 20178 53004
KMCO 200053Z 36012KT 10SM -RA FEW014 OVC055 17/14 A3010 RMK AO2 RAB44 SLP193 P0000 T01670139
KMCO 200153Z 36016KT 3SM -RA BR BKN006 BKN009 OVC014 16/14 A3010 RMK AO2 SFC VIS 5 SLP193 P0002 T01560139
KMCO 200253Z 36012KT 3SM -RA BR FEW004 BKN008 OVC016 15/14 A3013 RMK AO2 SLP201 P0003 60005 T01500139 53013



Page loaded:  03:01 UTC  |   08:01 PM Pacific  |   09:01 PM Mountain  |   10:01 PM Central  |   11:01 PM Eastern

 

ADVISORIES

FORECASTS

FORECASTS

OBSERVATIONS

USER TOOLS

ABOUT US